Date,TemperatureHighF,TemperatureAvgF,TemperatureLowF,DewpointHighF,DewpointAvgF,DewpointLowF,HumidityHigh,HumidityAvg,HumidityLow,PressureMaxIn,PressureMinIn,WindSpeedMaxMPH,WindSpeedAvgMPH,GustSpeedMaxMPH,PrecipitationSumIn
2013-1-1,24,21,19,17,16,14,85,79,68,30.32,30.13,0,0,1,0.00
2013-1-2,23,19,11,15,13,7,85,78,68,30.33,30.30,1,0,4,0.00
2013-1-3,20,15,10,13,10,6,86,80,73,30.30,30.11,2,0,3,0.00
2013-1-4,24,19,14,21,14,10,89,83,74,30.15,30.10,0,0,2,0.00
2013-1-5,31,24,16,24,20,13,89,84,71,30.20,29.98,1,0,4,0.00
2013-1-6,33,28,24,24,21,19,87,76,62,30.00,29.82,3,0,13,0.00
2013-1-7,36,31,28,31,26,21,90,80,67,29.86,29.60,3,1,11,0.00
2013-1-8,35,32,29,31,24,17,88,71,51,29.91,29.64,4,1,12,0.00
2013-1-9,43,39,31,33,30,25,89,72,48,29.75,29.48,7,2,17,0.26
2013-1-10,31,26,19,28,20,9,90,81,63,29.71,29.55,2,0,5,0.12
2013-1-11,20,14,4,11,3,-2,76,59,43,29.98,29.71,1,0,10,0.00
2013-1-12,19,12,5,11,6,-1,81,77,70,30.02,29.90,0,0,2,0.00
2013-1-13,18,12,4,9,7,-1,83,77,64,30.10,30.01,0,0,2,0.00
2013-1-14,19,16,13,13,10,7,83,78,67,30.16,30.01,1,0,3,0.00
2013-1-15,26,20,17,20,16,13,88,82,74,30.31,30.16,0,0,0,0.00
2013-1-16,36,23,14,25,18,10,89,81,63,30.32,30.24,1,0,2,0.06
2013-1-17,37,25,17,24,19,14,88,79,58,30.32,30.09,2,0,3,0.03
2013-1-18,41,30,22,22,18,15,84,62,37,30.10,29.98,2,0,6,0.04
2013-1-19,38,27,21,22,17,14,75,65,44,30.19,30.09,1,0,3,0.02
2013-1-20,34,26,18,21,18,13,83,70,55,30.25,30.15,0,0,2,0.02
2013-1-21,38,26,20,22,18,13,84,72,52,30.15,30.01,1,0,3,0.01
2013-1-22,33,23,15,20,15,9,82,71,52,30.08,29.98,0,0,2,0.01
2013-1-23,33,25,19,26,18,14,89,74,56,30.00,29.77,1,0,5,0.01
2013-1-24,39,34,27,32,24,19,89,65,50,30.04,29.75,4,1,14,0.05
2013-1-25,42,38,29,34,30,21,84,72,64,30.00,29.75,6,1,13,0.03
2013-1-26,39,33,25,34,30,22,93,89,80,29.77,29.68,1,0,5,0.20
2013-1-27,33,28,23,23,20,17,87,72,57,29.75,29.70,1,0,6,0.01
2013-1-28,32,27,19,23,19,16,88,73,60,29.74,29.59,2,0,6,0.00
2013-1-29,29,23,19,22,18,16,87,83,73,29.92,29.62,1,0,4,0.03
2013-1-30,39,33,26,27,25,20,86,72,61,29.96,29.82,2,1,10,0.03
2013-1-31,40,37,35,31,28,26,84,70,64,30.05,29.96,3,1,9,0.03